Time;durP1;ratioP1;P1;durP2;ratioP2;P2;SDS_P1;SDS_P2;PMS_P1;PMS_P2;Temp;Humidity;BMP_temperature;BMP_pressure;BME280_temperature;BME280_humidity;BME280_pressure;Samples;Min_cycle;Max_cycle;Signal;HPM_P1;HPM_P2
2023/10/13 00:02:30;;;;;;;1999.90;999.90;;;;;;;12.69;100.00;97951.16;18625082;31;20127;-59
2023/10/13 00:12:36;;;;;;;1999.90;999.90;;;;;;;12.57;100.00;97945.25;18625052;31;20390;-59
2023/10/13 00:22:40;;;;;;;1999.90;999.90;;;;;;;12.48;100.00;97947.69;18611645;31;20082;-58
2023/10/13 00:32:46;;;;;;;1999.90;999.90;;;;;;;12.53;100.00;97952.31;18624657;31;20090;-58
2023/10/13 00:42:51;;;;;;;1999.90;999.90;;;;;;;12.49;100.00;97941.19;18609614;31;20107;-59
2023/10/13 00:52:55;;;;;;;1999.90;999.90;;;;;;;12.48;100.00;97938.75;18624445;31;20079;-58
2023/10/13 01:03:05;;;;;;;1999.90;999.90;;;;;;;12.43;100.00;97942.31;18623562;31;20104;-59
2023/10/13 01:13:07;;;;;;;1999.90;999.90;;;;;;;12.37;100.00;97927.94;18629346;31;20365;-58
2023/10/13 01:23:24;;;;;;;1999.90;999.90;;;;;;;12.20;100.00;97920.09;18620154;31;20053;-58
2023/10/13 01:33:27;;;;;;;1999.90;999.90;;;;;;;12.17;100.00;97917.94;18614580;31;20380;-58
2023/10/13 01:43:30;;;;;;;1999.90;999.90;;;;;;;12.08;100.00;97913.37;18633044;31;20061;-58
2023/10/13 01:53:32;;;;;;;1999.90;999.90;;;;;;;11.95;100.00;97912.84;18618399;31;20068;-58
2023/10/13 02:03:46;;;;;;;1999.90;999.90;;;;;;;11.78;100.00;97910.38;18632062;31;20474;-58
2023/10/13 02:13:50;;;;;;;1999.90;999.90;;;;;;;11.66;100.00;97901.72;18631549;31;20108;-58
2023/10/13 02:24:18;;;;;;;1999.90;999.90;;;;;;;11.37;100.00;97899.53;18609944;31;20068;-58
2023/10/13 02:34:18;;;;;;;1999.90;999.90;;;;;;;11.27;100.00;97894.91;18626370;31;20094;-58
2023/10/13 02:44:30;;;;;;;1999.90;999.90;;;;;;;11.24;100.00;97887.34;18629118;31;20060;-58
2023/10/13 02:54:39;;;;;;;1999.90;999.90;;;;;;;11.11;100.00;97887.88;18615699;31;20049;-58
2023/10/13 03:04:41;;;;;;;1999.90;999.90;;;;;;;11.00;100.00;97862.69;18628259;31;20061;-58
2023/10/13 03:14:47;;;;;;;1999.90;999.90;;;;;;;10.96;100.00;97858.87;18600544;31;20394;-58
2023/10/13 03:24:53;;;;;;;1999.90;999.90;;;;;;;10.92;100.00;97847.81;18627032;31;20107;-58
2023/10/13 03:45:10;;;;;;;1999.90;999.90;;;;;;;10.69;100.00;97830.16;18625911;31;20067;-58
2023/10/13 03:55:17;;;;;;;1999.90;999.90;;;;;;;10.59;100.00;97822.00;18626161;31;20075;-59
2023/10/13 04:26:21;;;;;;;1999.90;999.90;;;;;;;10.39;100.00;97793.00;18624928;31;20053;-58
2023/10/13 04:46:35;;;;;;;1999.90;999.90;;;;;;;10.07;100.00;97791.25;18615418;31;20155;-58
2023/10/13 05:48:24;;;;;;;1999.90;999.90;;;;;;;9.52;100.00;97767.19;18633527;31;20347;-58
2023/10/13 06:29:50;;;;;;;1999.90;999.90;;;;;;;9.60;100.00;97795.59;18630632;31;20334;-58
2023/10/13 06:40:03;;;;;;;1999.90;999.90;;;;;;;9.79;100.00;97791.37;18629586;31;20048;-58
2023/10/13 06:50:15;;;;;;;1999.90;999.90;;;;;;;9.99;100.00;97800.69;18629211;31;20060;-58
2023/10/13 07:00:34;;;;;;;1999.90;999.90;;;;;;;10.21;100.00;97796.97;18621968;31;20079;-58
2023/10/13 07:10:48;;;;;;;1999.90;999.90;;;;;;;10.43;100.00;97799.50;18612869;31;20076;-58
2023/10/13 07:20:52;;;;;;;1999.90;999.90;;;;;;;10.70;100.00;97793.91;18627262;31;20053;-58
2023/10/13 07:41:06;;;;;;;1999.90;999.90;;;;;;;11.39;100.00;97797.22;18625873;31;20041;-58
2023/10/13 07:51:22;;;;;;;1999.90;999.90;;;;;;;11.84;100.00;97800.91;18612839;31;20052;-58
2023/10/13 08:01:24;;;;;;;1999.90;999.90;;;;;;;12.69;100.00;97801.16;18625749;31;20067;-58
2023/10/13 08:11:30;;;;;;;1999.90;999.90;;;;;;;13.30;100.00;97801.78;18625286;31;20056;-59
2023/10/13 08:21:34;;;;;;;1999.90;999.90;;;;;;;13.82;100.00;97783.13;18631383;31;20105;-58
2023/10/13 08:31:41;;;;;;;1999.90;999.90;;;;;;;14.33;100.00;97784.44;18623480;31;20075;-58
2023/10/13 08:42:11;;;;;;;1999.90;999.90;;;;;;;14.80;100.00;97777.28;18636525;31;20089;-59
2023/10/13 09:13:03;;;;;;;1999.90;999.90;;;;;;;16.62;100.00;97772.91;18609609;31;20507;-59
2023/10/13 09:23:12;;;;;;;1999.90;999.90;;;;;;;17.06;100.00;97752.25;18621485;31;20473;-58
2023/10/13 09:33:28;;;;;;;1999.90;999.90;;;;;;;17.82;100.00;97756.88;18619181;31;20092;-59
2023/10/13 09:43:32;;;;;;;1999.90;999.90;;;;;;;18.25;100.00;97749.94;18620098;31;20063;-59
2023/10/13 09:53:38;;;;;;;1999.90;999.90;;;;;;;18.58;100.00;97742.12;18632866;31;20092;-59
2023/10/13 10:04:18;;;;;;;1999.90;999.90;;;;;;;19.15;98.17;97723.91;18632274;31;20052;-59
2023/10/13 10:15:13;;;;;;;1999.90;999.90;;;;;;;19.31;100.00;97699.53;18631600;31;20056;-59
2023/10/13 10:25:25;;;;;;;1999.90;999.90;;;;;;;20.00;100.00;97700.41;18610156;31;20052;-59
2023/10/13 10:35:32;;;;;;;1999.90;999.90;;;;;;;20.22;95.38;97688.31;18630182;31;20124;-59
2023/10/13 10:45:45;;;;;;;1999.90;999.90;;;;;;;20.45;93.69;97683.31;18629170;31;20052;-59
2023/10/13 10:55:48;;;;;;;1999.90;999.90;;;;;;;21.16;79.05;97664.28;18628922;31;20406;-59
2023/10/13 11:05:51;;;;;;;1999.90;999.90;;;;;;;21.08;81.01;97648.69;18600950;31;20048;-59
2023/10/13 11:15:57;;;;;;;1999.90;999.90;;;;;;;21.11;87.01;97639.75;18627668;31;20056;-59
2023/10/13 11:26:00;;;;;;;1999.90;999.90;;;;;;;21.50;83.24;97621.81;18627241;31;20443;-59
2023/10/13 11:36:03;;;;;;;1999.90;999.90;;;;;;;21.98;77.93;97608.37;18619806;31;20107;-59
2023/10/13 11:56:11;;;;;;;1999.90;999.90;;;;;;;23.19;78.32;97570.00;18625161;31;20087;-59
2023/10/13 12:06:32;;;;;;;1999.90;999.90;;;;;;;23.70;75.22;97560.97;18611357;31;20536;-59
2023/10/13 12:16:35;;;;;;;1999.90;999.90;;;;;;;24.30;87.01;97549.66;18625778;31;20079;-59
2023/10/13 12:26:41;;;;;;;1999.90;999.90;;;;;;;24.88;66.42;97539.69;18610659;31;20071;-59
2023/10/13 12:36:53;;;;;;;1999.90;999.90;;;;;;;25.39;92.89;97526.72;18624395;31;20078;-59
2023/10/13 12:57:17;;;;;;;1999.90;999.90;;;;;;;25.24;74.70;97504.31;18559214;32;20425;-59
2023/10/13 13:07:20;;;;;;;1999.90;999.90;;;;;;;24.95;55.28;97484.50;18563523;31;20444;-59
2023/10/13 13:17:22;;;;;;;1999.90;999.90;;;;;;;24.91;51.02;97474.56;18569683;31;20061;-59
2023/10/13 13:27:25;;;;;;;1999.90;999.90;;;;;;;25.15;47.78;97465.84;18568105;32;20356;-59
2023/10/13 13:37:29;;;;;;;1999.90;999.90;;;;;;;25.29;42.03;97448.66;18570512;31;20699;-59
2023/10/13 13:47:33;;;;;;;1999.90;999.90;;;;;;;24.87;57.39;97433.00;18633495;31;20071;-59
2023/10/13 13:57:36;;;;;;;1999.90;999.90;;;;;;;24.70;52.33;97415.75;18618390;31;20159;-59
2023/10/13 14:07:39;;;;;;;1999.90;999.90;;;;;;;24.06;54.45;97398.81;18618049;31;20048;-59
2023/10/13 14:17:43;;;;;;;1999.90;999.90;;;;;;;23.47;62.54;97382.25;18625537;31;20057;-59
2023/10/13 14:27:47;;;;;;;1999.90;999.90;;;;;;;23.14;68.44;97372.50;18630120;31;20067;-59
2023/10/13 14:37:50;;;;;;;1999.90;999.90;;;;;;;22.84;65.02;97363.91;18629931;31;20057;-59
2023/10/13 14:47:53;;;;;;;1999.90;999.90;;;;;;;22.79;63.24;97342.97;18629546;31;20071;-59
2023/10/13 14:57:57;;;;;;;1999.90;999.90;;;;;;;22.77;61.02;97350.78;18628834;31;20068;-59
2023/10/13 15:08:03;;;;;;;1999.90;999.90;;;;;;;22.43;51.81;97338.56;18614352;31;20088;-59
2023/10/13 15:18:06;;;;;;;1999.90;999.90;;;;;;;22.16;58.94;97332.75;18627919;31;20108;-59
2023/10/13 15:28:09;;;;;;;1999.90;999.90;;;;;;;21.48;57.78;97328.97;18612643;31;20052;-59
2023/10/13 15:38:12;;;;;;;1999.90;999.90;;;;;;;21.29;54.02;97322.16;18626539;31;20462;-59
2023/10/13 15:48:15;;;;;;;1999.90;999.90;;;;;;;20.99;49.85;97324.41;18611702;31;20052;-59
2023/10/13 15:58:25;;;;;;;1999.90;999.90;;;;;;;20.62;54.43;97313.47;18625730;31;20097;-59
2023/10/13 16:08:31;;;;;;;1999.90;999.90;;;;;;;20.25;58.27;97314.25;18621332;31;20383;-58
2023/10/13 16:18:34;;;;;;;1999.90;999.90;;;;;;;20.05;56.82;97318.72;18608008;31;20071;-59
2023/10/13 16:28:38;;;;;;;1999.90;999.90;;;;;;;19.74;54.78;97320.00;18610792;31;20092;-59
2023/10/13 16:38:45;;;;;;;1999.90;999.90;;;;;;;19.46;56.61;97325.28;18610683;31;20453;-58
2023/10/13 16:48:50;;;;;;;1999.90;999.90;;;;;;;19.20;60.84;97333.72;18637137;31;20068;-59
2023/10/13 16:58:56;;;;;;;1999.90;999.90;;;;;;;18.78;62.99;97329.81;18609516;31;20398;-59
2023/10/13 17:09:00;;;;;;;1999.90;999.90;;;;;;;18.31;76.26;97323.63;18621153;31;20096;-58
2023/10/13 17:19:02;;;;;;;1999.90;999.90;;;;;;;17.91;70.93;97311.88;18621190;31;20048;-59
2023/10/13 17:29:09;;;;;;;1999.90;999.90;;;;;;;17.54;73.46;97292.34;18620080;31;20071;-59
2023/10/13 17:39:11;;;;;;;1999.90;999.90;;;;;;;17.33;81.51;97281.25;18633962;31;20096;-59
2023/10/13 17:49:13;;;;;;;1999.90;999.90;;;;;;;17.09;86.07;97279.06;18633183;31;20356;-59
2023/10/13 17:59:17;;;;;;;1999.90;999.90;;;;;;;16.89;92.36;97305.06;18625407;31;20069;-59
2023/10/13 18:09:22;;;;;;;;;;;;;;;16.85;83.72;97328.66;18618282;31;20100;-59
2023/10/13 18:19:27;;;;;;;1999.90;999.90;;;;;;;16.59;89.73;97311.13;18631897;31;19943;-59
2023/10/13 18:29:30;;;;;;;1999.90;999.90;;;;;;;16.41;95.40;97304.00;18631310;31;20052;-59
2023/10/13 18:39:35;;;;;;;1999.90;999.90;;;;;;;16.34;96.90;97295.47;18615618;31;20052;-59
2023/10/13 18:49:38;;;;;;;1999.90;999.90;;;;;;;16.29;94.03;97282.78;18624705;31;20052;-58
2023/10/13 18:59:40;;;;;;;1999.90;999.90;;;;;;;16.12;95.64;97275.34;18627477;31;20071;-59
2023/10/13 19:09:44;;;;;;;1999.90;999.90;;;;;;;16.13;87.70;97268.78;18628834;31;20067;-59
2023/10/13 19:19:47;;;;;;;1999.90;999.90;;;;;;;16.96;67.35;97263.63;18627783;31;20420;-59
2023/10/13 19:29:51;;;;;;;1999.90;999.90;;;;;;;16.72;68.19;97264.87;18627144;31;20044;-59
2023/10/13 19:39:59;;;;;;;1999.90;999.90;;;;;;;17.30;63.34;97268.25;18626367;31;20060;-58
2023/10/13 19:50:01;;;;;;;1999.90;999.90;;;;;;;17.59;62.18;97270.28;18626251;31;20444;-58
2023/10/13 20:00:08;;;;;;;1999.90;999.90;;;;;;;18.20;54.41;97279.41;18611840;31;20100;-59
2023/10/13 20:10:11;;;;;;;1999.90;999.90;;;;;;;18.11;60.58;97285.72;18611824;31;20057;-58
2023/10/13 20:20:18;;;;;;;1999.90;999.90;;;;;;;18.29;62.34;97278.25;18621063;31;20060;-59
2023/10/13 20:30:21;;;;;;;1999.90;999.90;;;;;;;18.40;60.85;97280.59;18638337;31;20079;-59
2023/10/13 20:40:24;;;;;;;1999.90;999.90;;;;;;;18.43;61.76;97290.88;18630537;31;20048;-59
2023/10/13 20:50:26;;;;;;;1999.90;999.90;;;;;;;18.62;68.26;97293.19;18637131;31;20056;-59
2023/10/13 21:00:30;;;;;;;1999.90;999.90;;;;;;;18.59;69.12;97294.63;18636715;31;20094;-59
2023/10/13 21:10:33;;;;;;;1999.90;999.90;;;;;;;19.30;60.12;97308.66;18621551;31;20084;-59
2023/10/13 21:20:40;;;;;;;1999.90;999.90;;;;;;;19.24;63.47;97313.53;18620915;31;20080;-59
2023/10/13 21:30:43;;;;;;;1999.90;999.90;;;;;;;19.41;63.69;97329.03;18607241;31;20064;-59
2023/10/13 21:40:46;;;;;;;1999.90;999.90;;;;;;;19.20;78.29;97320.84;18619336;31;20459;-59
2023/10/13 21:50:49;;;;;;;1999.90;999.90;;;;;;;19.05;88.41;97321.41;18633218;31;20056;-59
2023/10/13 22:00:59;;;;;;;1999.90;999.90;;;;;;;18.94;84.15;97321.84;18632696;31;20049;-59
2023/10/13 22:11:03;;;;;;;1999.90;999.90;;;;;;;18.95;84.53;97333.59;18632106;31;20394;-59
2023/10/13 22:21:07;;;;;;;1999.90;999.90;;;;;;;19.10;84.78;97324.78;18617206;31;20057;-59
2023/10/13 22:31:13;;;;;;;1999.90;999.90;;;;;;;19.62;75.06;97342.72;18630516;31;20068;-59
2023/10/13 22:41:16;;;;;;;1999.90;999.90;;;;;;;19.84;67.22;97348.97;18614800;31;20107;-59
2023/10/13 22:51:18;;;;;;;1999.90;999.90;;;;;;;19.76;70.41;97349.81;18615434;31;20107;-59
2023/10/13 23:01:21;;;;;;;1999.90;999.90;;;;;;;19.67;78.85;97343.66;18629080;31;20053;-59
2023/10/13 23:11:31;;;;;;;1999.90;999.90;;;;;;;19.44;75.60;97344.00;18628570;31;20052;-59
2023/10/13 23:21:38;;;;;;;1999.90;999.90;;;;;;;19.03;91.50;97340.16;18621239;31;20044;-59
2023/10/13 23:31:43;;;;;;;1999.90;999.90;;;;;;;18.59;100.00;97332.97;18627211;31;20417;-59
2023/10/13 23:41:46;;;;;;;1999.90;999.90;;;;;;;18.58;100.00;97341.53;18626075;31;20466;-59
2023/10/13 23:51:49;;;;;;;1999.90;999.90;;;;;;;18.43;100.00;97353.84;18625566;31;20076;-59
